createdAt,value
2023-05-14T21:00:44.687Z,15.80
2023-05-14T21:03:12.251Z,15.87
2023-05-14T21:05:41.742Z,15.88
2023-05-14T21:08:08.999Z,15.90
2023-05-14T21:10:36.296Z,15.92
2023-05-14T21:13:03.929Z,15.88
2023-05-14T21:15:31.395Z,15.87
2023-05-14T21:17:58.717Z,15.92
2023-05-14T21:20:26.147Z,15.96
2023-05-14T21:22:53.374Z,15.99
2023-05-14T21:25:20.856Z,16.00
2023-05-14T21:27:48.175Z,16.02
2023-05-14T21:30:15.795Z,16.09
2023-05-14T21:32:43.076Z,16.12
2023-05-14T21:35:10.632Z,16.16
2023-05-14T21:37:39.995Z,16.21
2023-05-14T21:40:12.662Z,16.14
2023-05-14T21:42:41.050Z,16.16
2023-05-14T21:45:08.884Z,16.15
2023-05-14T21:47:36.390Z,16.07
2023-05-14T21:50:05.175Z,16.09
2023-05-14T21:52:32.595Z,16.10
2023-05-14T21:54:59.881Z,16.05
2023-05-14T21:57:28.249Z,16.03
2023-05-14T21:59:56.185Z,15.93
2023-05-14T22:02:23.623Z,15.88
2023-05-14T22:04:50.938Z,15.96
2023-05-14T22:07:18.220Z,15.99
2023-05-14T22:09:45.592Z,15.96
2023-05-14T22:12:12.888Z,15.88
2023-05-14T22:14:40.207Z,15.71
2023-05-14T22:17:07.594Z,15.72
2023-05-14T22:19:34.859Z,15.76
2023-05-14T22:22:02.148Z,15.79
2023-05-14T22:24:29.369Z,15.84
2023-05-14T22:26:56.787Z,15.81
2023-05-14T22:29:24.060Z,15.87
2023-05-14T22:31:51.459Z,15.90
2023-05-14T22:34:19.769Z,16.04
2023-05-14T22:36:47.069Z,16.08
2023-05-14T22:39:14.406Z,16.07
2023-05-14T22:41:41.674Z,16.06
2023-05-14T22:44:08.951Z,16.06
2023-05-14T22:46:36.330Z,16.13
2023-05-14T22:49:03.576Z,16.17
2023-05-14T22:51:30.953Z,16.17
2023-05-14T22:53:58.188Z,16.18
2023-05-14T22:56:25.519Z,16.20
2023-05-14T22:58:52.841Z,16.17
2023-05-14T23:01:20.184Z,16.12
2023-05-14T23:03:47.485Z,16.11
2023-05-14T23:06:15.065Z,16.10
2023-05-14T23:08:42.380Z,16.12
2023-05-14T23:11:09.740Z,16.11
2023-05-14T23:13:37.020Z,16.12
2023-05-14T23:16:05.078Z,16.15
2023-05-14T23:18:32.838Z,16.18
2023-05-14T23:21:00.219Z,16.17
2023-05-14T23:23:27.529Z,16.17
2023-05-14T23:25:56.400Z,16.16
2023-05-14T23:28:23.696Z,16.08
2023-05-14T23:30:50.968Z,16.01
2023-05-14T23:33:21.068Z,15.90
2023-05-14T23:35:48.755Z,15.79
2023-05-14T23:38:16.871Z,15.70
2023-05-14T23:40:44.117Z,15.65
2023-05-14T23:43:11.427Z,15.54
2023-05-14T23:45:39.035Z,15.38
2023-05-14T23:48:06.467Z,15.34
2023-05-14T23:50:33.822Z,15.30
2023-05-14T23:53:01.024Z,15.22
2023-05-14T23:55:28.317Z,15.19
2023-05-14T23:57:55.655Z,15.20
